createdAt,value
2022-08-10T00:05:01.858Z,66665.56
2022-08-10T00:10:06.652Z,66648.34
2022-08-10T00:15:12.212Z,66577.31
2022-08-10T00:20:37.200Z,66615.03
2022-08-10T00:25:40.944Z,66723.06
2022-08-10T00:30:44.754Z,66703.78
2022-08-10T00:35:49.874Z,66705.41
2022-08-10T00:40:53.674Z,66690.78
2022-08-10T00:45:59.661Z,66693.66
2022-08-10T00:51:06.523Z,66705.84
2022-08-10T00:57:05.137Z,66624.63
2022-08-10T01:02:07.285Z,66607.56
2022-08-10T01:07:15.928Z,66671.47
2022-08-10T01:12:38.258Z,66637.06
2022-08-10T01:17:53.815Z,66618.25
2022-08-10T01:23:36.231Z,66583.31
2022-08-10T01:28:53.311Z,66672.88
2022-08-10T01:34:04.313Z,66603.66
2022-08-10T01:39:09.578Z,66635.53
2022-08-10T01:44:16.127Z,66575.16
2022-08-10T01:49:27.652Z,66531.53
2022-08-10T01:54:32.394Z,66615.56
2022-08-10T01:59:38.267Z,66643.53
2022-08-10T02:04:46.543Z,66599.34
2022-08-10T02:09:53.996Z,66579.00
2022-08-10T02:15:00.780Z,66520.78
2022-08-10T02:20:09.858Z,66578.38
2022-08-10T02:25:41.909Z,66573.63
2022-08-10T02:30:40.362Z,66640.28
2022-08-10T02:35:54.784Z,66676.94
2022-08-10T02:45:15.846Z,66672.66
2022-08-10T02:46:40.065Z,66623.72
2022-08-10T02:52:06.955Z,66549.88
2022-08-10T02:57:17.857Z,66598.34
2022-08-10T03:02:28.949Z,66615.56
2022-08-10T03:07:42.793Z,66607.97
2022-08-10T03:12:53.913Z,66532.16
2022-08-10T03:17:59.826Z,66594.44
2022-08-10T03:23:06.942Z,66605.28
2022-08-10T03:28:12.024Z,66605.81
2022-08-10T03:33:27.233Z,66598.81
2022-08-10T03:38:32.626Z,66602.13
2022-08-10T03:43:37.016Z,66576.78
2022-08-10T03:48:49.131Z,66653.66
2022-08-10T03:54:04.839Z,66713.56
2022-08-10T03:59:15.335Z,66733.84
2022-08-10T04:04:24.058Z,66753.81
2022-08-10T04:09:53.398Z,66803.28
2022-08-10T04:14:55.555Z,66838.34
2022-08-10T04:20:00.643Z,66823.75
2022-08-10T04:25:07.964Z,66936.91
2022-08-10T04:30:13.393Z,66920.69
2022-08-10T04:35:19.294Z,66920.16
2022-08-10T04:40:29.143Z,66982.16
2022-08-10T04:45:47.441Z,67048.50
2022-08-10T04:50:56.935Z,67089.09
2022-08-10T04:56:05.101Z,66986.09
2022-08-10T05:01:08.916Z,67052.19
2022-08-10T05:06:12.791Z,66969.84
2022-08-10T05:11:23.969Z,66995.09
2022-08-10T05:16:32.482Z,67187.31
2022-08-10T05:22:01.388Z,67193.16
2022-08-10T05:27:09.912Z,67200.25
2022-08-10T05:32:15.535Z,67224.47
2022-08-10T05:38:13.035Z,67229.28
2022-08-10T05:42:46.132Z,67285.59
2022-08-10T05:48:42.082Z,67379.56
2022-08-10T05:53:59.840Z,67388.25
2022-08-10T05:58:39.829Z,67333.09
2022-08-10T06:03:49.535Z,67363.41
2022-08-10T06:08:54.971Z,67285.03
2022-08-10T06:14:19.708Z,67212.53
2022-08-10T06:19:34.911Z,67378.41
2022-08-10T06:25:04.565Z,67407.19
2022-08-10T06:30:20.077Z,67449.91
2022-08-10T06:35:36.362Z,67385.91
2022-08-10T06:40:44.646Z,67317.00
2022-08-10T06:46:07.650Z,67393.53
2022-08-10T06:51:18.867Z,67333.16
2022-08-10T06:56:35.887Z,67463.91
2022-08-10T07:01:51.353Z,67340.72
2022-08-10T07:06:57.792Z,67335.25
2022-08-10T07:12:07.485Z,67395.19
2022-08-10T07:17:16.831Z,67404.44
2022-08-10T07:23:02.569Z,67402.31
2022-08-10T07:27:59.574Z,67402.81
2022-08-10T07:33:08.742Z,67559.19
2022-08-10T07:38:17.981Z,67556.47
2022-08-10T07:43:24.516Z,67491.00
2022-08-10T07:48:34.800Z,67588.44
2022-08-10T07:53:44.792Z,67531.06
2022-08-10T07:58:52.844Z,67554.31
2022-08-10T08:04:10.752Z,67447.06
2022-08-10T08:09:15.801Z,67498.03
2022-08-10T08:14:22.034Z,67598.59
2022-08-10T08:19:37.373Z,67604.66
2022-08-10T08:24:45.864Z,67601.41
2022-08-10T08:29:51.826Z,67663.06
2022-08-10T08:34:58.930Z,67598.16
2022-08-10T08:40:03.341Z,67655.00
2022-08-10T08:45:17.054Z,67641.41
2022-08-10T08:50:36.730Z,67573.19
2022-08-10T08:56:04.156Z,67564.00
2022-08-10T09:01:40.231Z,67538.16
2022-08-10T09:07:07.392Z,67629.53
2022-08-10T09:12:42.393Z,67553.19
2022-08-10T09:17:56.247Z,67556.41
2022-08-10T09:23:10.905Z,67721.50
2022-08-10T09:28:21.016Z,67674.94
2022-08-10T09:36:22.799Z,67766.53
2022-08-10T09:40:06.547Z,67560.69
2022-08-10T09:44:57.635Z,67520.78
2022-08-10T09:50:09.842Z,67769.72
2022-08-10T09:55:22.614Z,67892.31
2022-08-10T10:00:53.224Z,67818.56
2022-08-10T10:06:10.049Z,67936.78
2022-08-10T10:11:20.966Z,68016.03
2022-08-10T10:16:39.417Z,67833.75
2022-08-10T10:21:54.478Z,67766.16
2022-08-10T10:27:16.188Z,67811.03
2022-08-10T10:32:37.116Z,67763.84
2022-08-10T10:38:02.134Z,67770.81
2022-08-10T10:43:27.447Z,67881.97
2022-08-10T10:48:41.561Z,67703.69
2022-08-10T10:53:54.211Z,67605.72
2022-08-10T10:59:54.114Z,67656.06
2022-08-10T11:04:48.169Z,67831.09
2022-08-10T11:10:03.499Z,68093.69
2022-08-10T11:15:21.499Z,67823.50
2022-08-10T11:20:33.230Z,67873.38
2022-08-10T11:25:42.607Z,67812.75
2022-08-10T11:30:57.871Z,68100.19
2022-08-10T11:36:05.750Z,68185.50
2022-08-10T11:42:07.869Z,68051.31
2022-08-10T11:46:54.589Z,68105.06
2022-08-10T11:52:05.253Z,68081.72
2022-08-10T11:57:11.605Z,68213.69
2022-08-10T12:02:22.672Z,68588.41
2022-08-10T12:10:01.832Z,68534.50
2022-08-10T12:13:01.891Z,68554.13
2022-08-10T12:18:16.676Z,68062.22
2022-08-10T12:23:23.423Z,68215.31
2022-08-10T12:28:50.506Z,68286.59
2022-08-10T12:34:09.955Z,68247.34
2022-08-10T12:39:20.173Z,68028.41
2022-08-10T12:44:41.358Z,68000.19
2022-08-10T12:50:26.690Z,68197.94
2022-08-10T12:55:20.988Z,68062.69
2022-08-10T13:00:30.958Z,68009.03
2022-08-10T13:06:01.934Z,67928.19
2022-08-10T13:12:35.624Z,67946.59
2022-08-10T13:16:35.703Z,68142.06
2022-08-10T13:21:42.748Z,68283.78
2022-08-10T13:27:25.554Z,68334.97
2022-08-10T13:32:22.290Z,68178.34
2022-08-10T13:37:31.520Z,68272.91
2022-08-10T13:42:38.772Z,68540.56
2022-08-10T13:47:49.601Z,68574.84
2022-08-10T13:53:01.468Z,68513.84
2022-08-10T13:58:06.389Z,68347.94
2022-08-10T14:03:12.147Z,68430.03
2022-08-10T14:08:21.058Z,68463.25
2022-08-10T14:13:27.307Z,68472.47
2022-08-10T14:18:35.173Z,68299.00
2022-08-10T14:23:52.260Z,68301.81
2022-08-10T14:29:06.592Z,68406.72
2022-08-10T14:34:14.616Z,68406.63
2022-08-10T14:39:26.414Z,68456.69
2022-08-10T14:44:32.266Z,68407.16
2022-08-10T14:49:57.448Z,68323.94
2022-08-10T14:55:19.061Z,68311.97
2022-08-10T15:00:33.097Z,68143.06
2022-08-10T15:05:42.036Z,67830.00
2022-08-10T15:10:50.839Z,67828.91
2022-08-10T15:16:11.930Z,67816.41
2022-08-10T15:21:17.843Z,67766.53
2022-08-10T15:26:27.698Z,67840.34
2022-08-10T15:31:34.177Z,67995.94
2022-08-10T15:37:36.154Z,68184.28
2022-08-10T15:42:26.807Z,68139.78
2022-08-10T15:47:45.149Z,68032.34
2022-08-10T15:53:01.818Z,67989.34
2022-08-10T15:58:10.889Z,67885.31
2022-08-10T16:03:23.357Z,67854.41
2022-08-10T16:08:29.992Z,68019.28
2022-08-10T16:13:50.060Z,68195.69
2022-08-10T16:19:04.096Z,68150.13
2022-08-10T16:24:30.823Z,68050.72
2022-08-10T16:29:56.318Z,68012.69
2022-08-10T16:35:02.343Z,67928.03
2022-08-10T16:40:14.661Z,67838.09
2022-08-10T16:45:24.696Z,67847.94
2022-08-10T16:50:30.771Z,67851.09
2022-08-10T16:55:48.992Z,67817.00
2022-08-10T17:01:01.920Z,67780.63
2022-08-10T17:06:11.075Z,67765.41
2022-08-10T17:11:16.777Z,67758.44
2022-08-10T17:16:22.682Z,67744.88
2022-08-10T17:21:31.315Z,67697.13
2022-08-10T17:26:38.438Z,67659.28
2022-08-10T17:31:54.519Z,67596.00
2022-08-10T17:37:01.134Z,67546.63
2022-08-10T17:42:06.120Z,67539.72
2022-08-10T17:47:13.087Z,67509.91
2022-08-10T17:52:22.262Z,67528.28
2022-08-10T17:57:29.312Z,67513.72
2022-08-10T18:02:40.299Z,67500.56
2022-08-10T18:07:48.617Z,67422.75
2022-08-10T18:12:55.413Z,67447.16
2022-08-10T18:18:03.728Z,67483.91
2022-08-10T18:23:09.267Z,67494.25
2022-08-10T18:28:20.440Z,67473.09
2022-08-10T18:33:30.183Z,67485.47
2022-08-10T18:38:37.721Z,67441.69
2022-08-10T18:44:05.495Z,67425.00
2022-08-10T18:49:17.597Z,67458.44
2022-08-10T18:54:34.521Z,67457.34
2022-08-10T19:00:09.372Z,67476.81
2022-08-10T19:05:30.425Z,67468.78
2022-08-10T19:10:39.998Z,67393.06
2022-08-10T19:15:49.609Z,67389.16
2022-08-10T19:20:59.066Z,67370.38
2022-08-10T19:26:42.781Z,67383.75
2022-08-10T19:31:47.272Z,67398.47
2022-08-10T19:37:04.151Z,67372.53
2022-08-10T19:42:14.958Z,67309.84
2022-08-10T19:47:27.598Z,67342.81
2022-08-10T19:52:40.611Z,67353.00
2022-08-10T19:57:52.196Z,67365.56
2022-08-10T20:03:11.806Z,67354.66
2022-08-10T20:08:23.030Z,67350.72
2022-08-10T20:13:38.491Z,67349.91
2022-08-10T20:18:44.675Z,67325.44
2022-08-10T20:23:55.780Z,67267.19
2022-08-10T20:29:08.052Z,67288.25
2022-08-10T20:34:20.568Z,67282.81
2022-08-10T20:39:44.245Z,67269.34
2022-08-10T20:44:58.887Z,67240.09
2022-08-10T20:50:18.303Z,67228.34
2022-08-10T20:55:28.436Z,67219.09
2022-08-10T21:00:47.595Z,67129.94
2022-08-10T21:06:15.053Z,66994.03
2022-08-10T21:11:36.380Z,66897.06
2022-08-10T21:16:59.353Z,66792.66
2022-08-10T21:22:16.541Z,66801.81
2022-08-10T21:27:27.336Z,66798.50
2022-08-10T21:32:56.766Z,66861.06
2022-08-10T21:38:09.411Z,66886.22
2022-08-10T21:43:49.619Z,66917.94
2022-08-10T21:49:15.477Z,66947.75
2022-08-10T21:54:44.919Z,66976.38
2022-08-10T22:00:15.578Z,67009.13
2022-08-10T22:05:45.517Z,66928.41
2022-08-10T22:11:09.367Z,66909.00
2022-08-10T22:16:46.641Z,66890.53
2022-08-10T22:22:27.792Z,66862.13
2022-08-10T22:27:53.756Z,66908.44
2022-08-10T22:33:33.176Z,66858.28
2022-08-10T22:39:10.954Z,66914.16
2022-08-10T22:44:37.133Z,66934.28
2022-08-10T22:49:41.411Z,66938.97
2022-08-10T22:55:13.989Z,66909.94
2022-08-10T23:00:20.277Z,66897.13
2022-08-10T23:05:48.464Z,66879.91
2022-08-10T23:11:04.308Z,66920.22
2022-08-10T23:16:33.392Z,66871.75
2022-08-10T23:22:03.211Z,66846.50
2022-08-10T23:27:13.213Z,66850.75
2022-08-10T23:32:38.643Z,66866.44
2022-08-10T23:37:46.279Z,66749.06
2022-08-10T23:42:52.956Z,66755.38
2022-08-10T23:48:01.384Z,66729.44
2022-08-10T23:53:13.407Z,66652.69
2022-08-10T23:58:31.831Z,66632.69
